INFORMACIÓN METAR y TAF
METAR FOR LIMC
ADDS - METARS form results

(0431 UTC 27 October 2021)
Data provider http://aviationweather.gov/metar/data/
 
METAR text: LIMC 270420Z 01005KT 4000 R35R/0700U R17L/P1500N R35L/P1500N BCFG NSC 05/05 Q1026 NOSIG
Conditions at: LIMC (MILANO/MALPENSA , IT) observed 0420 UTC 27 October 2021
Temperature: 5.0°C (41°F)
Dewpoint: 5.0°C (41°F) [RH = 100%]
Pressure (altimeter): 30.30 inches Hg (1026.0 mb)
Winds: from the N (10 degrees) at 6 MPH (5 knots; 2.6 m/s)
Visibility: 2.49 miles (4.01 km)
Ceiling: at least 12,000 feet AGL
Clouds: sky clear below 12,000 feet AGL
Weather: BCFG  (patches of fog)

METAR text: LIMC 270350Z 01005KT 4000 R35R/1300D R17L/1200U R35L/P1500N BCFG NSC 05/05 Q1026 NOSIG
Conditions at: LIMC (MILANO/MALPENSA , IT) observed 0350 UTC 27 October 2021
Temperature: 5.0°C (41°F)
Dewpoint: 5.0°C (41°F) [RH = 100%]
Pressure (altimeter): 30.30 inches Hg (1026.0 mb)
Winds: from the N (10 degrees) at 6 MPH (5 knots; 2.6 m/s)
Visibility: 2.49 miles (4.01 km)
Ceiling: at least 12,000 feet AGL
Clouds: sky clear below 12,000 feet AGL
Weather: BCFG  (patches of fog)

Forecast for: LIMC (MILANO/MALPENSA , IT)
Text: TAF LIMC 262300Z 2700/2806 VRB05KT 8000 NSC
Forecast period: 0000 UTC 27 October 2021 to 0600 UTC 28 October 2021
Forecast type: FROM: standard forecast or significant change
Winds: variable direction winds at 6 MPH (5 knots; 2.6 m/s)
Visibility: 5 miles (8 km)
Ceiling: unknown
Clouds: missing
Weather: no significant weather forecast for this period
Text: BECMG 2700/2702 4000 BR
Forecast period: 0000 to 0700 UTC 27 October 2021
Forecast type: BECOMING: Conditions expected to become as follows by 0200 UTC 27 October 2021
Winds: variable direction winds at 6 MPH (5 knots; 2.6 m/s)
Visibility: 2.49 miles (4.01 km)
Ceiling: unknown
Clouds: missing
Weather: BR  (mist)
Text: PROB40
Forecast period: 0300 to 0600 UTC 27 October 2021
Forecast type: TEMPORARY: The following changes expected for less than half the time period
Visibility: 0.75 miles (1.21 km)
Ceiling: unknown
Clouds: missing
Weather: BCFG  (patches of fog)
Text: TEMPO 2703/2706 1200 BCFG
Forecast period: 0700 UTC 27 October 2021 to 0600 UTC 28 October 2021
Forecast type: BECOMING: Conditions expected to become as follows by 0900 UTC 27 October 2021
Winds: variable direction winds at 6 MPH (5 knots; 2.6 m/s)
Visibility: 4 miles (7 km)
Ceiling: unknown
Clouds: missing
Weather: BR  (mist)

 MAPA DE AEROPUERTO

 INFORMACIÓN DE PISTA